createdAt,value
2019-05-05T00:01:40.308Z,77.82
2019-05-05T00:04:19.932Z,77.70
2019-05-05T00:06:49.317Z,77.90
2019-05-05T00:09:18.727Z,77.98
2019-05-05T00:11:49.764Z,77.79
2019-05-05T00:14:24.628Z,77.94
2019-05-05T00:17:05.320Z,78.19
2019-05-05T00:19:35.839Z,78.37
2019-05-05T00:22:05.443Z,78.43
2019-05-05T00:24:35.161Z,78.65
2019-05-05T00:27:04.605Z,78.84
2019-05-05T00:29:34.693Z,78.90
2019-05-05T00:32:04.938Z,79.05
2019-05-05T00:34:35.084Z,79.18
2019-05-05T00:37:04.854Z,79.13
2019-05-05T00:39:34.577Z,79.12
2019-05-05T00:42:05.548Z,79.20
2019-05-05T00:44:35.306Z,79.23
2019-05-05T00:47:06.500Z,79.40
2019-05-05T00:49:46.544Z,79.38
2019-05-05T00:52:08.638Z,79.42
2019-05-05T00:54:38.049Z,79.50
2019-05-05T00:57:07.429Z,79.42
2019-05-05T00:59:36.847Z,79.20
2019-05-05T01:02:26.464Z,79.15
2019-05-05T01:05:00.590Z,79.26
2019-05-05T01:07:30.392Z,79.43
2019-05-05T01:09:59.791Z,79.44
2019-05-05T01:12:29.293Z,79.35
2019-05-05T01:14:58.707Z,79.37
2019-05-05T01:17:28.096Z,79.21
2019-05-05T01:20:03.447Z,79.27
2019-05-05T01:22:29.057Z,79.55
2019-05-05T01:24:58.461Z,79.46
2019-05-05T01:27:27.875Z,79.48
2019-05-05T01:29:57.278Z,79.72
2019-05-05T01:32:28.309Z,79.66
2019-05-05T01:34:57.715Z,79.48
2019-05-05T01:37:28.747Z,78.87
2019-05-05T01:39:59.810Z,78.81
2019-05-05T01:42:29.374Z,79.11
2019-05-05T01:44:58.797Z,79.35
2019-05-05T01:47:28.192Z,79.55
2019-05-05T01:49:57.604Z,79.86
2019-05-05T01:52:26.999Z,79.88
2019-05-05T01:54:56.508Z,79.76
2019-05-05T01:57:26.176Z,79.68
2019-05-05T01:59:56.122Z,79.95
2019-05-05T02:02:25.583Z,79.78
2019-05-05T02:04:55.479Z,79.70
2019-05-05T02:07:25.197Z,80.01
2019-05-05T02:09:55.431Z,80.55
2019-05-05T02:12:25.073Z,80.61
2019-05-05T02:14:55.105Z,80.75
2019-05-05T02:17:24.881Z,80.73
2019-05-05T02:19:55.083Z,80.84
2019-05-05T02:22:25.248Z,80.81
2019-05-05T02:24:55.198Z,80.75
2019-05-05T02:27:25.331Z,80.71
2019-05-05T02:29:56.696Z,80.74
2019-05-05T02:32:27.800Z,80.67
2019-05-05T02:35:01.672Z,80.78
2019-05-05T02:37:31.050Z,80.67
2019-05-05T02:40:04.340Z,80.59
2019-05-05T02:42:32.027Z,80.61
2019-05-05T02:45:05.709Z,80.61
2019-05-05T02:47:56.245Z,80.62
2019-05-05T02:50:46.655Z,80.39
2019-05-05T02:53:04.088Z,80.45
2019-05-05T02:55:34.873Z,80.74
2019-05-05T02:58:04.575Z,80.71
2019-05-05T03:00:35.770Z,80.50
2019-05-05T03:03:07.172Z,80.53
2019-05-05T03:05:36.928Z,80.56
2019-05-05T03:08:06.689Z,80.68
2019-05-05T03:10:36.332Z,80.81
2019-05-05T03:13:05.921Z,80.73
2019-05-05T03:15:41.047Z,80.64
2019-05-05T03:18:10.526Z,80.58
2019-05-05T03:20:40.099Z,80.75
2019-05-05T03:23:09.588Z,80.54
2019-05-05T03:25:39.213Z,80.15
2019-05-05T03:28:08.699Z,79.91
2019-05-05T03:30:38.537Z,80.06
2019-05-05T03:33:07.949Z,79.83
2019-05-05T03:35:37.617Z,79.89
2019-05-05T03:38:07.472Z,80.20
2019-05-05T03:40:38.947Z,80.52
2019-05-05T03:43:10.357Z,80.68
2019-05-05T03:45:44.663Z,80.49
2019-05-05T03:48:14.561Z,80.46
2019-05-05T03:50:44.610Z,80.47
2019-05-05T03:53:14.596Z,81.11
2019-05-05T03:55:44.090Z,81.21
2019-05-05T03:58:14.655Z,81.35
2019-05-05T04:01:16.050Z,81.44
2019-05-05T04:03:45.498Z,80.73
2019-05-05T04:06:15.132Z,79.62
2019-05-05T04:08:45.620Z,79.51
2019-05-05T04:11:15.006Z,79.70
2019-05-05T04:13:45.057Z,80.01
2019-05-05T04:16:18.826Z,79.79
2019-05-05T04:18:49.884Z,79.75
2019-05-05T04:21:30.325Z,79.86
2019-05-05T04:23:50.390Z,80.10
2019-05-05T04:26:19.784Z,80.10
2019-05-05T04:28:49.199Z,80.17
2019-05-05T04:31:18.622Z,80.03
2019-05-05T04:33:48.034Z,79.95
2019-05-05T04:36:17.434Z,79.79
2019-05-05T04:38:46.860Z,79.47
2019-05-05T04:41:16.250Z,79.67
2019-05-05T04:43:45.666Z,79.66
2019-05-05T04:46:15.130Z,79.31
2019-05-05T04:48:48.696Z,78.90
2019-05-05T04:51:25.792Z,78.89
2019-05-05T04:53:59.799Z,79.06
2019-05-05T04:56:30.093Z,79.11
2019-05-05T04:58:59.644Z,79.37
2019-05-05T05:01:29.039Z,79.60
2019-05-05T05:04:06.095Z,79.50
2019-05-05T05:06:40.287Z,79.31
2019-05-05T05:09:09.735Z,79.33
2019-05-05T05:11:39.127Z,78.97
2019-05-05T05:14:08.587Z,78.37
2019-05-05T05:16:38.057Z,77.72
2019-05-05T05:19:07.471Z,77.17
2019-05-05T05:21:36.869Z,76.45
2019-05-05T05:24:06.295Z,75.70
2019-05-05T05:26:35.695Z,75.06
2019-05-05T05:29:05.181Z,74.19
2019-05-05T05:31:34.600Z,73.16
2019-05-05T05:34:04.463Z,72.90
2019-05-05T05:36:33.968Z,71.82
2019-05-05T05:39:14.020Z,71.12
2019-05-05T05:41:45.037Z,70.68
2019-05-05T05:44:19.372Z,69.29
2019-05-05T05:46:55.882Z,68.68
2019-05-05T05:49:26.949Z,67.96
2019-05-05T05:51:56.354Z,67.44
2019-05-05T05:54:25.852Z,65.68
2019-05-05T05:56:55.267Z,64.97
2019-05-05T05:59:24.812Z,64.29
2019-05-05T06:02:08.684Z,64.01
2019-05-05T06:04:25.479Z,63.48
2019-05-05T06:06:54.884Z,63.14
2019-05-05T06:09:24.319Z,62.02
2019-05-05T06:11:54.216Z,60.50
2019-05-05T06:14:24.717Z,61.09
2019-05-05T06:16:54.213Z,59.83
2019-05-05T06:19:24.602Z,59.12
2019-05-05T06:21:54.401Z,58.55
2019-05-05T06:24:24.066Z,58.37
2019-05-05T06:26:54.710Z,57.33
2019-05-05T06:29:24.154Z,57.11
2019-05-05T06:31:53.900Z,56.56
2019-05-05T06:34:24.412Z,57.18
2019-05-05T06:36:53.935Z,57.14
2019-05-05T06:39:24.179Z,55.74
2019-05-05T06:41:55.360Z,54.73
2019-05-05T06:44:29.092Z,54.27
2019-05-05T06:47:04.714Z,53.36
2019-05-05T06:49:34.674Z,50.26
2019-05-05T06:52:04.397Z,46.70
2019-05-05T06:54:34.876Z,43.08
2019-05-05T06:57:04.662Z,40.21
2019-05-05T06:59:34.986Z,38.41
2019-05-05T07:02:04.703Z,37.69
2019-05-05T07:04:34.216Z,38.03
2019-05-05T07:07:05.198Z,36.99
2019-05-05T07:09:34.832Z,34.17
2019-05-05T07:12:04.712Z,35.07
2019-05-05T07:14:34.262Z,34.89
2019-05-05T07:17:05.065Z,37.39
2019-05-05T07:19:34.837Z,39.19
2019-05-05T07:22:04.332Z,41.10
2019-05-05T07:24:34.496Z,42.88
2019-05-05T07:27:04.876Z,43.53
2019-05-05T07:29:34.486Z,42.33
2019-05-05T07:32:04.255Z,44.92
2019-05-05T07:34:46.877Z,44.54
2019-05-05T07:37:16.294Z,44.98
2019-05-05T07:39:45.708Z,45.53
2019-05-05T07:42:15.192Z,44.57
2019-05-05T07:44:44.641Z,44.05
2019-05-05T07:47:14.641Z,44.80
2019-05-05T07:49:44.275Z,43.39
2019-05-05T07:52:15.154Z,41.45
2019-05-05T07:54:44.716Z,43.76
2019-05-05T07:57:14.693Z,43.51
2019-05-05T07:59:45.036Z,44.31
2019-05-05T08:02:14.711Z,45.53
2019-05-05T08:04:44.101Z,47.58
2019-05-05T08:07:14.706Z,48.75
2019-05-05T08:09:44.556Z,47.93
2019-05-05T08:12:14.102Z,48.00
2019-05-05T08:14:44.443Z,45.74
2019-05-05T08:17:23.452Z,46.00
2019-05-05T08:19:56.726Z,46.43
2019-05-05T08:22:26.140Z,47.24
2019-05-05T08:25:06.380Z,46.28
2019-05-05T08:27:46.696Z,43.60
2019-05-05T08:30:34.516Z,38.08
2019-05-05T08:33:04.586Z,34.33
2019-05-05T08:35:34.547Z,30.33
2019-05-05T08:38:04.713Z,30.10
2019-05-05T08:40:34.694Z,30.81
2019-05-05T08:43:04.698Z,30.92
2019-05-05T08:45:35.031Z,32.26
2019-05-05T08:48:05.071Z,33.14
2019-05-05T08:50:35.032Z,34.97
2019-05-05T08:53:08.015Z,36.60
2019-05-05T08:55:35.637Z,37.49
2019-05-05T08:58:05.054Z,38.42
2019-05-05T09:00:34.452Z,40.38
2019-05-05T09:03:04.036Z,38.51
2019-05-05T09:05:34.309Z,37.99
2019-05-05T09:08:04.667Z,36.48
2019-05-05T09:10:34.538Z,33.61
2019-05-05T09:13:04.349Z,32.87
2019-05-05T09:15:33.928Z,30.51
2019-05-05T09:18:04.993Z,28.07
2019-05-05T09:20:34.885Z,25.60
2019-05-05T09:23:04.765Z,24.34
2019-05-05T09:25:44.715Z,25.15
2019-05-05T09:28:15.936Z,22.87
2019-05-05T09:30:47.034Z,24.79
2019-05-05T09:33:18.373Z,24.47
2019-05-05T09:35:47.909Z,26.14
2019-05-05T09:38:17.870Z,28.08
2019-05-05T09:40:47.333Z,30.14
2019-05-05T09:43:16.887Z,31.41
2019-05-05T09:45:46.287Z,32.43
2019-05-05T09:48:15.743Z,34.53
2019-05-05T09:50:45.213Z,34.31
2019-05-05T09:53:14.763Z,34.39
2019-05-05T09:55:44.448Z,33.01
2019-05-05T09:58:13.964Z,31.84
2019-05-05T10:00:45.255Z,29.29
2019-05-05T10:03:14.910Z,25.97
2019-05-05T10:05:45.243Z,22.34
2019-05-05T10:08:14.734Z,22.65
2019-05-05T10:10:44.529Z,24.19
2019-05-05T10:13:14.975Z,25.15
2019-05-05T10:15:44.632Z,28.28
2019-05-05T10:18:14.330Z,31.57
2019-05-05T10:20:43.769Z,33.63
2019-05-05T10:23:14.247Z,30.96
2019-05-05T10:25:47.929Z,25.89
2019-05-05T10:28:17.413Z,23.22
2019-05-05T10:30:47.857Z,21.68
2019-05-05T10:33:17.343Z,22.04
2019-05-05T10:35:46.757Z,26.15
2019-05-05T10:38:16.160Z,29.22
2019-05-05T10:40:48.222Z,31.37
2019-05-05T10:43:16.772Z,33.44
2019-05-05T10:45:46.262Z,36.49
2019-05-05T10:48:15.657Z,38.35
2019-05-05T10:50:45.083Z,41.54
2019-05-05T10:53:14.492Z,41.51
2019-05-05T10:55:45.053Z,43.56
2019-05-05T10:58:14.512Z,44.11
2019-05-05T11:00:48.291Z,43.08
2019-05-05T11:03:17.963Z,42.94
2019-05-05T11:05:47.384Z,42.28
2019-05-05T11:08:16.953Z,41.02
2019-05-05T11:10:46.392Z,41.58
2019-05-05T11:13:15.783Z,43.26
2019-05-05T11:15:45.198Z,44.87
2019-05-05T11:18:15.189Z,48.28
2019-05-05T11:20:45.143Z,49.43
2019-05-05T11:23:15.312Z,48.48
2019-05-05T11:25:44.964Z,50.51
2019-05-05T11:28:14.366Z,52.90
2019-05-05T11:30:46.532Z,51.66
2019-05-05T11:33:20.624Z,47.48
2019-05-05T11:35:57.574Z,47.53
2019-05-05T11:38:26.999Z,44.85
2019-05-05T11:40:56.417Z,40.95
2019-05-05T11:43:25.812Z,33.77
2019-05-05T11:45:55.331Z,31.11
2019-05-05T11:48:24.732Z,29.18
2019-05-05T11:50:54.276Z,29.32
2019-05-05T11:53:25.157Z,30.59
2019-05-05T11:55:55.254Z,30.22
2019-05-05T11:58:25.041Z,33.24
2019-05-05T12:00:54.907Z,32.19
2019-05-05T12:03:24.597Z,33.42
2019-05-05T12:05:54.010Z,35.17
2019-05-05T12:08:23.922Z,35.53
2019-05-05T12:10:55.054Z,36.02
2019-05-05T12:13:24.457Z,38.82
2019-05-05T12:15:58.513Z,39.36
2019-05-05T12:18:28.149Z,38.92
2019-05-05T12:20:57.589Z,39.05
2019-05-05T12:23:27.261Z,36.94
2019-05-05T12:25:58.562Z,37.27
2019-05-05T12:28:47.073Z,38.26
2019-05-05T12:31:18.145Z,39.59
2019-05-05T12:33:47.559Z,40.61
2019-05-05T12:36:16.971Z,42.69
2019-05-05T12:38:46.364Z,47.07
2019-05-05T12:41:15.785Z,50.83
2019-05-05T12:43:45.198Z,53.54
2019-05-05T12:46:31.265Z,54.60
2019-05-05T12:49:02.384Z,54.05
2019-05-05T12:51:34.122Z,57.37
2019-05-05T12:54:04.518Z,55.49
2019-05-05T12:56:34.231Z,54.17
2019-05-05T12:59:05.446Z,53.06
2019-05-05T13:01:36.520Z,49.93
2019-05-05T13:04:05.918Z,48.31
2019-05-05T13:06:35.335Z,49.04
2019-05-05T13:09:07.219Z,49.65
2019-05-05T13:11:36.810Z,49.51
2019-05-05T13:14:06.558Z,46.83
2019-05-05T13:16:35.990Z,44.07
2019-05-05T13:19:07.043Z,45.33
2019-05-05T13:21:54.496Z,43.91
2019-05-05T13:24:28.226Z,43.52
2019-05-05T13:27:01.777Z,43.31
2019-05-05T13:29:31.174Z,42.36
2019-05-05T13:32:00.603Z,41.96
2019-05-05T13:34:30.000Z,40.38
2019-05-05T13:36:59.443Z,39.82
2019-05-05T13:39:28.858Z,40.89
2019-05-05T13:41:58.344Z,41.60
2019-05-05T13:44:29.395Z,42.32
2019-05-05T13:46:58.828Z,41.18
2019-05-05T13:49:29.866Z,41.77
2019-05-05T13:52:00.927Z,41.95
2019-05-05T13:54:30.325Z,41.14
2019-05-05T13:56:59.761Z,42.74
2019-05-05T13:59:29.259Z,40.68
2019-05-05T14:01:58.691Z,41.02
2019-05-05T14:04:28.092Z,42.50
2019-05-05T14:06:57.645Z,43.77
2019-05-05T14:09:27.061Z,44.55
2019-05-05T14:11:56.539Z,45.17
2019-05-05T14:14:25.991Z,44.61
2019-05-05T14:16:55.422Z,45.24
2019-05-05T14:19:24.990Z,46.89
2019-05-05T14:21:54.444Z,45.71
2019-05-05T14:24:28.497Z,46.11
2019-05-05T14:26:57.917Z,45.61
2019-05-05T14:29:43.708Z,44.17
2019-05-05T14:32:14.841Z,44.01
2019-05-05T14:34:48.535Z,43.31
2019-05-05T14:37:33.884Z,42.65
2019-05-05T14:40:04.808Z,42.33
2019-05-05T14:42:34.479Z,42.15
2019-05-05T14:45:05.702Z,41.33
2019-05-05T14:47:35.425Z,42.78
2019-05-05T14:50:06.358Z,42.40
2019-05-05T14:52:35.778Z,41.67
2019-05-05T14:55:06.611Z,42.36
2019-05-05T14:57:36.031Z,41.27
2019-05-05T15:00:10.285Z,40.67
2019-05-05T15:02:39.980Z,40.47
2019-05-05T15:05:27.634Z,39.89
2019-05-05T15:08:15.131Z,39.76
2019-05-05T15:10:55.113Z,38.72
2019-05-05T15:13:24.904Z,37.16
2019-05-05T15:15:54.347Z,35.08
2019-05-05T15:18:24.273Z,36.71
2019-05-05T15:20:54.691Z,37.68
2019-05-05T15:23:24.203Z,39.47
2019-05-05T15:25:54.103Z,42.03
2019-05-05T15:28:24.668Z,42.17
2019-05-05T15:30:54.624Z,43.15
2019-05-05T15:33:24.468Z,45.14
2019-05-05T15:35:54.689Z,45.59
2019-05-05T15:38:24.513Z,46.50
2019-05-05T15:40:54.703Z,44.77
2019-05-05T15:43:24.474Z,43.82
2019-05-05T15:45:54.177Z,43.57
2019-05-05T15:48:23.660Z,42.79
2019-05-05T15:50:54.622Z,41.41
2019-05-05T15:53:24.162Z,41.45
2019-05-05T15:55:54.020Z,40.43
2019-05-05T15:58:23.714Z,41.20
2019-05-05T16:00:53.799Z,41.88
2019-05-05T16:03:23.352Z,40.75
2019-05-05T16:05:54.307Z,41.74
2019-05-05T16:08:23.819Z,40.95
2019-05-05T16:10:54.676Z,40.67
2019-05-05T16:13:24.215Z,43.58
2019-05-05T16:16:01.209Z,45.33
2019-05-05T16:18:41.327Z,43.76
2019-05-05T16:21:23.620Z,43.42
2019-05-05T16:24:04.002Z,42.96
2019-05-05T16:26:33.401Z,42.62
2019-05-05T16:29:04.164Z,42.27
2019-05-05T16:31:34.243Z,42.79
2019-05-05T16:34:03.999Z,42.67
2019-05-05T16:36:33.585Z,42.37
2019-05-05T16:39:03.244Z,42.15
2019-05-05T16:41:34.073Z,41.68
2019-05-05T16:44:04.688Z,42.48
2019-05-05T16:46:34.226Z,42.55
2019-05-05T16:49:03.697Z,42.98
2019-05-05T16:51:37.168Z,42.84
2019-05-05T16:54:08.220Z,42.95
2019-05-05T16:56:37.617Z,43.37
2019-05-05T16:59:07.038Z,42.72
2019-05-05T17:01:36.569Z,42.79
2019-05-05T17:04:11.245Z,42.90
2019-05-05T17:06:37.094Z,43.33
2019-05-05T17:09:06.955Z,43.21
2019-05-05T17:11:36.419Z,43.99
2019-05-05T17:14:13.660Z,44.37
2019-05-05T17:17:03.832Z,45.20
2019-05-05T17:19:34.983Z,45.28
2019-05-05T17:22:08.713Z,45.42
2019-05-05T17:24:38.913Z,45.57
2019-05-05T17:27:08.427Z,45.76
2019-05-05T17:29:37.838Z,45.74
2019-05-05T17:32:07.230Z,46.30
2019-05-05T17:34:36.723Z,46.65
2019-05-05T17:37:06.127Z,46.70
2019-05-05T17:39:37.183Z,47.12
2019-05-05T17:42:14.213Z,47.63
2019-05-05T17:44:48.182Z,48.04
2019-05-05T17:47:19.233Z,47.74
2019-05-05T17:49:59.273Z,48.02
2019-05-05T17:52:38.872Z,47.65
2019-05-05T17:55:21.614Z,46.40
2019-05-05T17:57:59.727Z,46.55
2019-05-05T18:00:24.231Z,46.34
2019-05-05T18:02:53.535Z,46.21
2019-05-05T18:05:24.849Z,45.29
2019-05-05T18:07:54.234Z,45.52
2019-05-05T18:10:25.298Z,51.68
2019-05-05T18:12:56.338Z,55.21
2019-05-05T18:15:43.621Z,56.03
2019-05-05T18:18:13.946Z,56.74
2019-05-05T18:20:44.925Z,58.99
2019-05-05T18:23:14.616Z,59.63
2019-05-05T18:25:44.272Z,59.57
2019-05-05T18:28:19.686Z,54.65
2019-05-05T18:30:44.928Z,56.73
2019-05-05T18:33:14.337Z,57.29
2019-05-05T18:35:44.360Z,54.51
2019-05-05T18:38:14.029Z,54.77
2019-05-05T18:40:44.114Z,54.83
2019-05-05T18:43:15.155Z,55.20
2019-05-05T18:45:44.587Z,53.64
2019-05-05T18:48:14.119Z,54.49
2019-05-05T18:50:43.603Z,54.69
2019-05-05T18:53:14.030Z,55.25
2019-05-05T18:55:44.627Z,55.40
2019-05-05T18:58:26.999Z,55.89
2019-05-05T19:00:49.585Z,56.51
2019-05-05T19:03:20.885Z,56.94
2019-05-05T19:05:53.551Z,57.33
2019-05-05T19:08:27.380Z,56.80
2019-05-05T19:10:56.858Z,56.83
2019-05-05T19:13:26.237Z,57.36
2019-05-05T19:15:55.647Z,57.52
2019-05-05T19:18:25.042Z,58.13
2019-05-05T19:20:56.091Z,58.09
2019-05-05T19:23:25.504Z,58.69
2019-05-05T19:25:56.124Z,58.58
2019-05-05T19:28:25.586Z,57.71
2019-05-05T19:30:55.378Z,57.57
2019-05-05T19:33:24.765Z,58.03
2019-05-05T19:35:54.157Z,58.34
2019-05-05T19:38:23.816Z,58.77
2019-05-05T19:40:55.958Z,58.89
2019-05-05T19:43:24.585Z,58.93
2019-05-05T19:45:55.241Z,59.26
2019-05-05T19:48:24.704Z,59.72
2019-05-05T19:50:58.860Z,59.85
2019-05-05T19:53:28.339Z,60.25
2019-05-05T19:55:57.728Z,60.48
2019-05-05T19:58:27.163Z,60.63
2019-05-05T20:00:58.196Z,61.55
2019-05-05T20:03:27.708Z,62.62
2019-05-05T20:05:57.266Z,62.83
2019-05-05T20:08:39.932Z,63.09
2019-05-05T20:10:57.806Z,63.21
2019-05-05T20:13:27.932Z,63.47
2019-05-05T20:15:59.118Z,63.32
2019-05-05T20:18:28.541Z,63.02
2019-05-05T20:21:04.072Z,63.20
2019-05-05T20:23:29.062Z,63.93
2019-05-05T20:25:58.547Z,64.62
2019-05-05T20:28:28.037Z,64.75
2019-05-05T20:30:57.462Z,65.00
2019-05-05T20:33:44.465Z,65.68
2019-05-05T20:36:15.492Z,66.12
2019-05-05T20:38:46.535Z,66.25
2019-05-05T20:41:17.111Z,66.50
2019-05-05T20:43:46.591Z,66.87
2019-05-05T20:46:16.095Z,67.51
2019-05-05T20:48:45.517Z,67.83
2019-05-05T20:51:14.904Z,68.53
2019-05-05T20:53:47.048Z,69.08
2019-05-05T20:56:15.675Z,69.44
2019-05-05T20:58:45.095Z,69.60
2019-05-05T21:01:14.487Z,70.13
2019-05-05T21:03:43.972Z,70.34
2019-05-05T21:06:14.010Z,70.61
2019-05-05T21:08:43.973Z,70.87
2019-05-05T21:11:14.235Z,71.48
2019-05-05T21:13:45.058Z,71.74
2019-05-05T21:16:16.285Z,71.69
2019-05-05T21:18:45.709Z,71.72
2019-05-05T21:21:16.739Z,71.78
2019-05-05T21:23:47.799Z,71.79
2019-05-05T21:26:24.629Z,71.96
2019-05-05T21:28:54.121Z,72.01
2019-05-05T21:31:24.038Z,72.37
2019-05-05T21:33:54.864Z,72.58
2019-05-05T21:36:24.605Z,72.81
2019-05-05T21:38:54.831Z,73.07
2019-05-05T21:41:24.639Z,72.98
2019-05-05T21:43:54.314Z,73.41
2019-05-05T21:46:24.135Z,73.64
2019-05-05T21:48:54.380Z,73.73
2019-05-05T21:51:31.370Z,73.68
2019-05-05T21:54:18.597Z,73.94
2019-05-05T21:56:49.643Z,73.75
2019-05-05T21:59:19.056Z,73.95
2019-05-05T22:01:49.949Z,73.95
2019-05-05T22:04:19.703Z,74.03
2019-05-05T22:06:49.096Z,74.11
2019-05-05T22:09:18.497Z,74.21
2019-05-05T22:11:47.931Z,74.46
2019-05-05T22:14:17.374Z,74.34
2019-05-05T22:16:46.754Z,74.69
2019-05-05T22:19:17.660Z,74.56
2019-05-05T22:21:48.728Z,74.66
2019-05-05T22:24:22.725Z,74.67
2019-05-05T22:26:54.146Z,74.68
2019-05-05T22:29:24.971Z,74.54
2019-05-05T22:31:54.467Z,74.61
2019-05-05T22:34:24.197Z,74.42
2019-05-05T22:36:53.826Z,74.21
2019-05-05T22:39:24.421Z,74.08
2019-05-05T22:41:54.423Z,74.05
2019-05-05T22:44:24.426Z,74.05
2019-05-05T22:46:53.955Z,74.08
2019-05-05T22:49:24.192Z,74.19
2019-05-05T22:51:54.156Z,74.48
2019-05-05T22:54:24.069Z,75.09
2019-05-05T22:56:53.978Z,75.21
2019-05-05T22:59:26.053Z,74.98
2019-05-05T23:01:54.605Z,74.99
2019-05-05T23:04:25.650Z,75.04
2019-05-05T23:06:56.764Z,75.27
2019-05-05T23:09:29.255Z,75.58
2019-05-05T23:11:58.653Z,75.43
2019-05-05T23:14:28.099Z,75.12
2019-05-05T23:17:11.199Z,75.07
2019-05-05T23:19:45.219Z,75.30
2019-05-05T23:22:24.072Z,75.24
2019-05-05T23:24:54.867Z,74.99
2019-05-05T23:27:44.051Z,74.89
2019-05-05T23:30:15.684Z,74.66
2019-05-05T23:32:45.676Z,74.47
2019-05-05T23:35:15.264Z,74.41
2019-05-05T23:37:45.716Z,74.46
2019-05-05T23:40:24.718Z,74.73
2019-05-05T23:42:54.537Z,74.48
2019-05-05T23:45:24.970Z,74.57
2019-05-05T23:47:54.868Z,74.61
2019-05-05T23:50:24.566Z,74.81
2019-05-05T23:52:54.662Z,75.06
2019-05-05T23:55:24.329Z,75.50
2019-05-05T23:57:54.676Z,75.62
